sensor_id;sensor_type;location;lat;lon;timestamp;temperature;humidity
15426;DHT22;7812;50.072;7.036;2022-10-16T00:01:58;14.20;99.90
15426;DHT22;7812;50.072;7.036;2022-10-16T00:04:24;14.20;99.90
15426;DHT22;7812;50.072;7.036;2022-10-16T00:06:50;14.20;99.90
15426;DHT22;7812;50.072;7.036;2022-10-16T00:09:16;14.30;99.90
15426;DHT22;7812;50.072;7.036;2022-10-16T00:11:42;14.30;99.90
15426;DHT22;7812;50.072;7.036;2022-10-16T00:14:11;14.30;99.90
15426;DHT22;7812;50.072;7.036;2022-10-16T00:16:38;14.20;99.90
15426;DHT22;7812;50.072;7.036;2022-10-16T00:19:04;14.30;99.90
15426;DHT22;7812;50.072;7.036;2022-10-16T00:21:31;14.30;99.90
15426;DHT22;7812;50.072;7.036;2022-10-16T00:24:03;14.30;99.90
15426;DHT22;7812;50.072;7.036;2022-10-16T00:26:31;14.20;99.90
15426;DHT22;7812;50.072;7.036;2022-10-16T00:28:57;14.10;99.90
15426;DHT22;7812;50.072;7.036;2022-10-16T00:31:23;14.20;99.90
15426;DHT22;7812;50.072;7.036;2022-10-16T00:33:49;14.20;99.90
15426;DHT22;7812;50.072;7.036;2022-10-16T00:36:18;14.10;99.90
15426;DHT22;7812;50.072;7.036;2022-10-16T00:38:44;14.10;99.90
15426;DHT22;7812;50.072;7.036;2022-10-16T00:41:16;14.10;99.90
15426;DHT22;7812;50.072;7.036;2022-10-16T00:43:50;14.00;99.90
15426;DHT22;7812;50.072;7.036;2022-10-16T00:46:39;14.00;99.90
15426;DHT22;7812;50.072;7.036;2022-10-16T00:49:14;14.00;99.90
15426;DHT22;7812;50.072;7.036;2022-10-16T00:51:43;14.00;99.90
15426;DHT22;7812;50.072;7.036;2022-10-16T00:54:26;13.90;99.90
15426;DHT22;7812;50.072;7.036;2022-10-16T00:56:53;13.90;99.90
15426;DHT22;7812;50.072;7.036;2022-10-16T00:59:29;13.90;99.90
15426;DHT22;7812;50.072;7.036;2022-10-16T01:01:56;13.90;99.90
15426;DHT22;7812;50.072;7.036;2022-10-16T01:04:24;13.90;99.90
15426;DHT22;7812;50.072;7.036;2022-10-16T01:15:53;13.80;99.90
15426;DHT22;7812;50.072;7.036;2022-10-16T01:18:23;13.70;99.90
15426;DHT22;7812;50.072;7.036;2022-10-16T01:20:53;13.60;99.90
15426;DHT22;7812;50.072;7.036;2022-10-16T01:28:54;13.50;99.90
15426;DHT22;7812;50.072;7.036;2022-10-16T01:31:24;13.50;99.90
15426;DHT22;7812;50.072;7.036;2022-10-16T01:33:59;13.50;99.90
15426;DHT22;7812;50.072;7.036;2022-10-16T01:36:31;13.50;99.90
15426;DHT22;7812;50.072;7.036;2022-10-16T01:39:01;13.60;99.90
15426;DHT22;7812;50.072;7.036;2022-10-16T01:41:35;13.60;99.90
15426;DHT22;7812;50.072;7.036;2022-10-16T01:44:10;13.70;99.90
15426;DHT22;7812;50.072;7.036;2022-10-16T01:46:39;13.70;99.90
15426;DHT22;7812;50.072;7.036;2022-10-16T01:49:06;13.70;99.90
15426;DHT22;7812;50.072;7.036;2022-10-16T01:51:34;13.70;99.90
15426;DHT22;7812;50.072;7.036;2022-10-16T01:54:02;13.70;99.90
15426;DHT22;7812;50.072;7.036;2022-10-16T01:56:28;13.70;99.90
15426;DHT22;7812;50.072;7.036;2022-10-16T01:59:13;13.70;99.90
15426;DHT22;7812;50.072;7.036;2022-10-16T02:01:44;13.70;99.90
15426;DHT22;7812;50.072;7.036;2022-10-16T02:04:34;13.70;99.90
15426;DHT22;7812;50.072;7.036;2022-10-16T02:07:02;13.70;99.90
15426;DHT22;7812;50.072;7.036;2022-10-16T02:09:27;13.70;99.90
15426;DHT22;7812;50.072;7.036;2022-10-16T02:11:56;13.70;99.90
15426;DHT22;7812;50.072;7.036;2022-10-16T02:14:23;13.60;99.90
15426;DHT22;7812;50.072;7.036;2022-10-16T02:16:50;13.70;99.90
15426;DHT22;7812;50.072;7.036;2022-10-16T02:19:17;13.70;99.90
15426;DHT22;7812;50.072;7.036;2022-10-16T02:22:04;13.70;99.90
15426;DHT22;7812;50.072;7.036;2022-10-16T02:24:49;13.80;99.90
15426;DHT22;7812;50.072;7.036;2022-10-16T02:27:27;13.80;99.90
15426;DHT22;7812;50.072;7.036;2022-10-16T02:30:05;13.80;99.90
15426;DHT22;7812;50.072;7.036;2022-10-16T02:32:34;13.80;99.90
15426;DHT22;7812;50.072;7.036;2022-10-16T02:35:01;13.80;99.90
15426;DHT22;7812;50.072;7.036;2022-10-16T02:37:28;13.80;99.90
15426;DHT22;7812;50.072;7.036;2022-10-16T02:39:56;13.80;99.90
15426;DHT22;7812;50.072;7.036;2022-10-16T02:42:28;13.80;99.90
15426;DHT22;7812;50.072;7.036;2022-10-16T02:44:55;13.80;99.90
15426;DHT22;7812;50.072;7.036;2022-10-16T02:47:20;13.80;99.90
15426;DHT22;7812;50.072;7.036;2022-10-16T02:49:47;13.80;99.90
15426;DHT22;7812;50.072;7.036;2022-10-16T02:52:13;13.80;99.90
15426;DHT22;7812;50.072;7.036;2022-10-16T02:54:38;13.80;99.90
15426;DHT22;7812;50.072;7.036;2022-10-16T02:57:04;13.70;99.90
15426;DHT22;7812;50.072;7.036;2022-10-16T02:59:29;13.70;99.90
15426;DHT22;7812;50.072;7.036;2022-10-16T03:01:55;13.50;99.90
15426;DHT22;7812;50.072;7.036;2022-10-16T03:04:21;13.50;99.90
15426;DHT22;7812;50.072;7.036;2022-10-16T03:06:46;13.60;99.90
15426;DHT22;7812;50.072;7.036;2022-10-16T03:09:12;13.70;99.90
15426;DHT22;7812;50.072;7.036;2022-10-16T03:11:38;13.70;99.90
15426;DHT22;7812;50.072;7.036;2022-10-16T03:14:04;13.80;99.90
15426;DHT22;7812;50.072;7.036;2022-10-16T03:16:29;13.80;99.90
15426;DHT22;7812;50.072;7.036;2022-10-16T03:18:55;13.80;99.90
15426;DHT22;7812;50.072;7.036;2022-10-16T03:21:20;13.80;99.90
15426;DHT22;7812;50.072;7.036;2022-10-16T03:23:47;13.70;99.90
15426;DHT22;7812;50.072;7.036;2022-10-16T03:26:14;13.70;99.90
15426;DHT22;7812;50.072;7.036;2022-10-16T03:28:40;13.70;99.90
15426;DHT22;7812;50.072;7.036;2022-10-16T03:31:05;13.70;99.90
15426;DHT22;7812;50.072;7.036;2022-10-16T03:33:31;13.80;99.90
15426;DHT22;7812;50.072;7.036;2022-10-16T03:35:57;13.70;99.90
15426;DHT22;7812;50.072;7.036;2022-10-16T03:38:23;13.70;99.90
15426;DHT22;7812;50.072;7.036;2022-10-16T03:40:48;13.70;99.90
15426;DHT22;7812;50.072;7.036;2022-10-16T03:43:14;13.80;99.90
15426;DHT22;7812;50.072;7.036;2022-10-16T03:45:39;13.70;99.90
15426;DHT22;7812;50.072;7.036;2022-10-16T03:48:05;13.70;99.90
15426;DHT22;7812;50.072;7.036;2022-10-16T03:50:31;13.70;99.90
15426;DHT22;7812;50.072;7.036;2022-10-16T03:52:57;13.80;99.90
15426;DHT22;7812;50.072;7.036;2022-10-16T03:55:22;13.70;99.90
15426;DHT22;7812;50.072;7.036;2022-10-16T03:57:48;13.80;99.90
15426;DHT22;7812;50.072;7.036;2022-10-16T04:00:14;13.70;99.90
15426;DHT22;7812;50.072;7.036;2022-10-16T04:02:40;13.70;99.90
15426;DHT22;7812;50.072;7.036;2022-10-16T04:05:06;13.80;99.90
15426;DHT22;7812;50.072;7.036;2022-10-16T04:07:32;13.80;99.90
15426;DHT22;7812;50.072;7.036;2022-10-16T04:09:58;13.80;99.90
15426;DHT22;7812;50.072;7.036;2022-10-16T04:12:25;13.80;99.90
15426;DHT22;7812;50.072;7.036;2022-10-16T04:14:51;13.70;99.90
15426;DHT22;7812;50.072;7.036;2022-10-16T04:17:16;13.70;99.90
15426;DHT22;7812;50.072;7.036;2022-10-16T04:19:42;13.80;99.90
15426;DHT22;7812;50.072;7.036;2022-10-16T04:22:08;13.70;99.90
15426;DHT22;7812;50.072;7.036;2022-10-16T04:24:34;13.70;99.90
15426;DHT22;7812;50.072;7.036;2022-10-16T04:26:59;13.70;99.90
15426;DHT22;7812;50.072;7.036;2022-10-16T04:29:25;13.60;99.90
15426;DHT22;7812;50.072;7.036;2022-10-16T04:31:51;13.50;99.90
15426;DHT22;7812;50.072;7.036;2022-10-16T04:34:16;13.50;99.90
15426;DHT22;7812;50.072;7.036;2022-10-16T04:36:42;13.50;99.90
15426;DHT22;7812;50.072;7.036;2022-10-16T04:39:08;13.60;99.90
15426;DHT22;7812;50.072;7.036;2022-10-16T04:41:33;13.50;99.90
15426;DHT22;7812;50.072;7.036;2022-10-16T04:43:59;13.60;99.90
15426;DHT22;7812;50.072;7.036;2022-10-16T04:46:24;13.60;99.90
15426;DHT22;7812;50.072;7.036;2022-10-16T04:48:50;13.60;99.90
15426;DHT22;7812;50.072;7.036;2022-10-16T04:51:17;13.50;99.90
15426;DHT22;7812;50.072;7.036;2022-10-16T04:53:44;13.50;99.90
15426;DHT22;7812;50.072;7.036;2022-10-16T04:56:09;13.60;99.90
15426;DHT22;7812;50.072;7.036;2022-10-16T04:58:35;13.60;99.90
15426;DHT22;7812;50.072;7.036;2022-10-16T05:01:01;13.50;99.90
15426;DHT22;7812;50.072;7.036;2022-10-16T05:03:26;13.50;99.90
15426;DHT22;7812;50.072;7.036;2022-10-16T05:05:52;13.50;99.90
15426;DHT22;7812;50.072;7.036;2022-10-16T05:08:18;13.60;99.90
15426;DHT22;7812;50.072;7.036;2022-10-16T05:10:45;13.60;99.90
15426;DHT22;7812;50.072;7.036;2022-10-16T05:13:11;13.70;99.90
15426;DHT22;7812;50.072;7.036;2022-10-16T05:15:37;13.60;99.90
15426;DHT22;7812;50.072;7.036;2022-10-16T05:18:03;13.60;99.90
15426;DHT22;7812;50.072;7.036;2022-10-16T05:20:29;13.60;99.90
15426;DHT22;7812;50.072;7.036;2022-10-16T05:22:54;13.60;99.90
15426;DHT22;7812;50.072;7.036;2022-10-16T05:25:20;13.70;99.90
15426;DHT22;7812;50.072;7.036;2022-10-16T05:27:49;13.60;99.90
15426;DHT22;7812;50.072;7.036;2022-10-16T05:30:17;13.60;99.90
15426;DHT22;7812;50.072;7.036;2022-10-16T05:32:49;13.50;99.90
15426;DHT22;7812;50.072;7.036;2022-10-16T05:35:15;13.50;99.90
15426;DHT22;7812;50.072;7.036;2022-10-16T05:37:41;13.60;99.90
15426;DHT22;7812;50.072;7.036;2022-10-16T05:40:08;13.60;99.90
15426;DHT22;7812;50.072;7.036;2022-10-16T05:42:34;13.50;99.90
15426;DHT22;7812;50.072;7.036;2022-10-16T05:45:00;13.50;99.90
15426;DHT22;7812;50.072;7.036;2022-10-16T05:47:26;13.60;99.90
15426;DHT22;7812;50.072;7.036;2022-10-16T05:49:52;13.60;99.90
15426;DHT22;7812;50.072;7.036;2022-10-16T05:52:18;13.60;99.90
15426;DHT22;7812;50.072;7.036;2022-10-16T05:54:43;13.60;99.90
15426;DHT22;7812;50.072;7.036;2022-10-16T05:57:09;13.40;99.90
15426;DHT22;7812;50.072;7.036;2022-10-16T05:59:35;13.40;99.90
15426;DHT22;7812;50.072;7.036;2022-10-16T06:02:00;13.50;99.90
15426;DHT22;7812;50.072;7.036;2022-10-16T06:04:26;13.60;99.90
15426;DHT22;7812;50.072;7.036;2022-10-16T06:06:52;13.60;99.90
15426;DHT22;7812;50.072;7.036;2022-10-16T06:09:17;13.60;99.90
15426;DHT22;7812;50.072;7.036;2022-10-16T06:11:43;13.50;99.90
15426;DHT22;7812;50.072;7.036;2022-10-16T06:14:09;13.60;99.90
15426;DHT22;7812;50.072;7.036;2022-10-16T06:16:35;13.60;99.90
15426;DHT22;7812;50.072;7.036;2022-10-16T06:19:03;13.60;99.90
15426;DHT22;7812;50.072;7.036;2022-10-16T06:21:32;13.50;99.90
15426;DHT22;7812;50.072;7.036;2022-10-16T06:23:58;13.50;99.90
15426;DHT22;7812;50.072;7.036;2022-10-16T06:26:27;13.50;99.90
15426;DHT22;7812;50.072;7.036;2022-10-16T06:28:57;13.60;99.90
15426;DHT22;7812;50.072;7.036;2022-10-16T06:31:25;13.70;99.90
15426;DHT22;7812;50.072;7.036;2022-10-16T06:33:54;13.70;99.90
15426;DHT22;7812;50.072;7.036;2022-10-16T06:36:20;13.80;99.90
15426;DHT22;7812;50.072;7.036;2022-10-16T06:38:46;13.70;99.90
15426;DHT22;7812;50.072;7.036;2022-10-16T06:41:15;13.80;99.90
15426;DHT22;7812;50.072;7.036;2022-10-16T06:43:41;13.90;99.90
15426;DHT22;7812;50.072;7.036;2022-10-16T06:46:09;13.90;99.90
15426;DHT22;7812;50.072;7.036;2022-10-16T06:48:42;13.90;99.90
15426;DHT22;7812;50.072;7.036;2022-10-16T06:51:13;13.90;99.90
15426;DHT22;7812;50.072;7.036;2022-10-16T06:53:42;14.00;99.90
15426;DHT22;7812;50.072;7.036;2022-10-16T06:56:27;14.00;99.90
15426;DHT22;7812;50.072;7.036;2022-10-16T06:58:53;14.00;99.90
15426;DHT22;7812;50.072;7.036;2022-10-16T07:01:21;14.00;99.90
15426;DHT22;7812;50.072;7.036;2022-10-16T07:03:48;14.00;99.90
15426;DHT22;7812;50.072;7.036;2022-10-16T07:06:19;13.90;99.90
15426;DHT22;7812;50.072;7.036;2022-10-16T07:08:46;13.90;99.90
15426;DHT22;7812;50.072;7.036;2022-10-16T07:11:17;14.00;99.90
15426;DHT22;7812;50.072;7.036;2022-10-16T07:13:44;13.90;99.90
15426;DHT22;7812;50.072;7.036;2022-10-16T07:16:14;14.00;99.90
15426;DHT22;7812;50.072;7.036;2022-10-16T07:18:40;14.00;99.90
15426;DHT22;7812;50.072;7.036;2022-10-16T07:21:10;14.10;99.90
15426;DHT22;7812;50.072;7.036;2022-10-16T07:23:37;14.10;99.90
15426;DHT22;7812;50.072;7.036;2022-10-16T07:26:03;14.20;99.90
15426;DHT22;7812;50.072;7.036;2022-10-16T07:28:29;14.20;99.90
15426;DHT22;7812;50.072;7.036;2022-10-16T07:31:00;14.20;99.90
15426;DHT22;7812;50.072;7.036;2022-10-16T07:33:28;14.20;99.90
15426;DHT22;7812;50.072;7.036;2022-10-16T07:35:54;14.20;99.90
15426;DHT22;7812;50.072;7.036;2022-10-16T07:38:21;14.30;99.90
15426;DHT22;7812;50.072;7.036;2022-10-16T07:40:47;14.10;99.90
15426;DHT22;7812;50.072;7.036;2022-10-16T07:43:14;14.10;99.90
15426;DHT22;7812;50.072;7.036;2022-10-16T07:45:50;14.30;99.90
15426;DHT22;7812;50.072;7.036;2022-10-16T07:48:17;14.40;99.90
15426;DHT22;7812;50.072;7.036;2022-10-16T07:50:43;14.50;99.90
15426;DHT22;7812;50.072;7.036;2022-10-16T07:53:10;14.60;99.90
15426;DHT22;7812;50.072;7.036;2022-10-16T07:55:36;14.60;99.90
15426;DHT22;7812;50.072;7.036;2022-10-16T07:58:01;14.70;99.90
15426;DHT22;7812;50.072;7.036;2022-10-16T08:00:27;14.70;99.90
15426;DHT22;7812;50.072;7.036;2022-10-16T08:02:53;14.90;99.90
15426;DHT22;7812;50.072;7.036;2022-10-16T08:05:18;15.00;99.90
15426;DHT22;7812;50.072;7.036;2022-10-16T08:07:50;14.90;99.90
15426;DHT22;7812;50.072;7.036;2022-10-16T08:10:18;15.00;99.90
15426;DHT22;7812;50.072;7.036;2022-10-16T08:12:44;15.10;99.90
15426;DHT22;7812;50.072;7.036;2022-10-16T08:15:10;15.20;99.90
15426;DHT22;7812;50.072;7.036;2022-10-16T08:17:36;15.40;99.90
15426;DHT22;7812;50.072;7.036;2022-10-16T08:20:01;15.50;99.90
15426;DHT22;7812;50.072;7.036;2022-10-16T08:22:28;15.70;99.90
15426;DHT22;7812;50.072;7.036;2022-10-16T08:24:55;15.80;99.90
15426;DHT22;7812;50.072;7.036;2022-10-16T08:27:21;15.90;99.90
15426;DHT22;7812;50.072;7.036;2022-10-16T08:29:48;16.00;99.90
15426;DHT22;7812;50.072;7.036;2022-10-16T08:32:15;16.00;99.90
15426;DHT22;7812;50.072;7.036;2022-10-16T08:34:40;15.90;99.90
15426;DHT22;7812;50.072;7.036;2022-10-16T08:37:06;15.90;99.90
15426;DHT22;7812;50.072;7.036;2022-10-16T08:39:33;15.60;99.90
15426;DHT22;7812;50.072;7.036;2022-10-16T08:47:05;16.00;99.90
15426;DHT22;7812;50.072;7.036;2022-10-16T08:49:34;16.10;99.90
15426;DHT22;7812;50.072;7.036;2022-10-16T08:52:00;16.10;99.90
15426;DHT22;7812;50.072;7.036;2022-10-16T08:54:28;16.10;99.90
15426;DHT22;7812;50.072;7.036;2022-10-16T08:56:56;16.30;99.90
15426;DHT22;7812;50.072;7.036;2022-10-16T08:59:22;16.40;99.90
15426;DHT22;7812;50.072;7.036;2022-10-16T09:01:50;16.40;99.90
15426;DHT22;7812;50.072;7.036;2022-10-16T09:18:50;16.40;99.90
15426;DHT22;7812;50.072;7.036;2022-10-16T09:21:28;16.30;99.90
15426;DHT22;7812;50.072;7.036;2022-10-16T09:23:56;16.30;99.90
15426;DHT22;7812;50.072;7.036;2022-10-16T09:26:24;16.30;99.90
15426;DHT22;7812;50.072;7.036;2022-10-16T09:28:52;16.60;99.90
15426;DHT22;7812;50.072;7.036;2022-10-16T09:31:20;17.00;99.90
15426;DHT22;7812;50.072;7.036;2022-10-16T09:33:53;17.40;99.90
15426;DHT22;7812;50.072;7.036;2022-10-16T09:36:21;17.60;99.90
15426;DHT22;7812;50.072;7.036;2022-10-16T09:38:49;17.70;99.90
15426;DHT22;7812;50.072;7.036;2022-10-16T09:41:22;17.60;99.90
15426;DHT22;7812;50.072;7.036;2022-10-16T09:43:57;17.70;99.90
15426;DHT22;7812;50.072;7.036;2022-10-16T09:48:57;18.30;99.90
15426;DHT22;7812;50.072;7.036;2022-10-16T09:51:30;18.70;99.90
15426;DHT22;7812;50.072;7.036;2022-10-16T09:54:15;18.70;99.90
15426;DHT22;7812;50.072;7.036;2022-10-16T09:56:41;18.50;99.90
15426;DHT22;7812;50.072;7.036;2022-10-16T09:59:15;18.20;99.90
15426;DHT22;7812;50.072;7.036;2022-10-16T10:01:54;18.10;99.90
15426;DHT22;7812;50.072;7.036;2022-10-16T10:04:23;18.20;99.90
15426;DHT22;7812;50.072;7.036;2022-10-16T10:06:50;18.10;99.90
15426;DHT22;7812;50.072;7.036;2022-10-16T10:09:38;18.00;99.90
15426;DHT22;7812;50.072;7.036;2022-10-16T10:12:05;18.00;99.90
15426;DHT22;7812;50.072;7.036;2022-10-16T10:14:39;18.70;99.90
15426;DHT22;7812;50.072;7.036;2022-10-16T10:22:32;21.00;99.90
15426;DHT22;7812;50.072;7.036;2022-10-16T10:28:21;20.40;99.90
15426;DHT22;7812;50.072;7.036;2022-10-16T10:33:43;19.70;99.90
15426;DHT22;7812;50.072;7.036;2022-10-16T10:36:36;19.40;99.90
15426;DHT22;7812;50.072;7.036;2022-10-16T10:50:49;20.40;99.90
15426;DHT22;7812;50.072;7.036;2022-10-16T11:06:59;22.20;99.90
15426;DHT22;7812;50.072;7.036;2022-10-16T11:09:34;23.60;99.90
15426;DHT22;7812;50.072;7.036;2022-10-16T11:12:12;23.90;99.90
15426;DHT22;7812;50.072;7.036;2022-10-16T11:20:31;26.80;99.90
15426;DHT22;7812;50.072;7.036;2022-10-16T11:25:32;25.00;99.90
15426;DHT22;7812;50.072;7.036;2022-10-16T11:33:59;27.10;99.90
15426;DHT22;7812;50.072;7.036;2022-10-16T11:39:26;25.00;99.90
15426;DHT22;7812;50.072;7.036;2022-10-16T11:44:44;22.90;99.90
15426;DHT22;7812;50.072;7.036;2022-10-16T11:50:09;22.00;99.90
15426;DHT22;7812;50.072;7.036;2022-10-16T11:52:48;21.50;99.90
15426;DHT22;7812;50.072;7.036;2022-10-16T11:55:24;21.20;99.90
15426;DHT22;7812;50.072;7.036;2022-10-16T11:57:56;21.10;99.90
15426;DHT22;7812;50.072;7.036;2022-10-16T12:02:57;20.50;99.90
15426;DHT22;7812;50.072;7.036;2022-10-16T12:08:16;19.80;99.90
15426;DHT22;7812;50.072;7.036;2022-10-16T12:10:47;19.40;99.90
15426;DHT22;7812;50.072;7.036;2022-10-16T12:13:36;19.10;99.90
15426;DHT22;7812;50.072;7.036;2022-10-16T12:18:37;18.90;99.90
15426;DHT22;7812;50.072;7.036;2022-10-16T12:21:04;18.80;99.90
15426;DHT22;7812;50.072;7.036;2022-10-16T12:23:37;18.80;99.90
15426;DHT22;7812;50.072;7.036;2022-10-16T12:26:04;18.80;99.90
15426;DHT22;7812;50.072;7.036;2022-10-16T12:28:33;18.90;99.90
15426;DHT22;7812;50.072;7.036;2022-10-16T12:31:04;19.20;99.90
15426;DHT22;7812;50.072;7.036;2022-10-16T12:33:35;19.60;99.90
15426;DHT22;7812;50.072;7.036;2022-10-16T12:36:15;20.30;99.90
15426;DHT22;7812;50.072;7.036;2022-10-16T12:38:51;20.60;99.90
15426;DHT22;7812;50.072;7.036;2022-10-16T12:41:35;20.90;99.90
15426;DHT22;7812;50.072;7.036;2022-10-16T12:44:24;21.90;99.90
15426;DHT22;7812;50.072;7.036;2022-10-16T12:46:53;22.90;99.90
15426;DHT22;7812;50.072;7.036;2022-10-16T12:51:53;23.00;99.90
15426;DHT22;7812;50.072;7.036;2022-10-16T12:54:36;22.10;99.90
15426;DHT22;7812;50.072;7.036;2022-10-16T13:20:28;20.20;99.90
15426;DHT22;7812;50.072;7.036;2022-10-16T13:23:08;20.10;99.90
15426;DHT22;7812;50.072;7.036;2022-10-16T13:28:27;20.00;99.90
15426;DHT22;7812;50.072;7.036;2022-10-16T13:30:57;19.90;99.90
15426;DHT22;7812;50.072;7.036;2022-10-16T13:33:39;19.80;99.90
15426;DHT22;7812;50.072;7.036;2022-10-16T13:36:18;19.90;99.90
15426;DHT22;7812;50.072;7.036;2022-10-16T13:38:44;19.90;99.90
15426;DHT22;7812;50.072;7.036;2022-10-16T13:41:16;19.90;99.90
15426;DHT22;7812;50.072;7.036;2022-10-16T13:44:00;19.90;99.90
15426;DHT22;7812;50.072;7.036;2022-10-16T13:46:26;19.90;99.90
15426;DHT22;7812;50.072;7.036;2022-10-16T13:49:05;20.00;99.90
15426;DHT22;7812;50.072;7.036;2022-10-16T13:51:32;20.10;99.90
15426;DHT22;7812;50.072;7.036;2022-10-16T13:53:58;19.70;99.90
15426;DHT22;7812;50.072;7.036;2022-10-16T13:56:29;19.80;99.90
15426;DHT22;7812;50.072;7.036;2022-10-16T13:59:06;19.90;99.90
15426;DHT22;7812;50.072;7.036;2022-10-16T14:01:43;20.00;99.90
15426;DHT22;7812;50.072;7.036;2022-10-16T14:04:11;20.10;99.90
15426;DHT22;7812;50.072;7.036;2022-10-16T14:06:41;20.10;99.90
15426;DHT22;7812;50.072;7.036;2022-10-16T14:12:02;20.10;99.90
15426;DHT22;7812;50.072;7.036;2022-10-16T14:14:41;20.30;99.90
15426;DHT22;7812;50.072;7.036;2022-10-16T14:17:18;20.40;99.90
15426;DHT22;7812;50.072;7.036;2022-10-16T14:19:50;20.40;99.90
15426;DHT22;7812;50.072;7.036;2022-10-16T14:22:40;20.40;99.90
15426;DHT22;7812;50.072;7.036;2022-10-16T14:30:28;20.30;99.90
15426;DHT22;7812;50.072;7.036;2022-10-16T14:33:04;20.10;99.90
15426;DHT22;7812;50.072;7.036;2022-10-16T14:35:32;19.90;99.90
15426;DHT22;7812;50.072;7.036;2022-10-16T14:37:59;19.90;99.90
15426;DHT22;7812;50.072;7.036;2022-10-16T14:40:36;19.80;99.90
15426;DHT22;7812;50.072;7.036;2022-10-16T14:43:04;19.60;99.90
15426;DHT22;7812;50.072;7.036;2022-10-16T14:45:33;19.30;99.90
15426;DHT22;7812;50.072;7.036;2022-10-16T14:48:16;19.10;99.90
15426;DHT22;7812;50.072;7.036;2022-10-16T14:50:42;18.80;99.90
15426;DHT22;7812;50.072;7.036;2022-10-16T14:53:11;18.50;99.90
15426;DHT22;7812;50.072;7.036;2022-10-16T14:55:38;18.50;99.90
15426;DHT22;7812;50.072;7.036;2022-10-16T14:58:05;18.40;99.90
15426;DHT22;7812;50.072;7.036;2022-10-16T15:00:31;18.40;99.90
15426;DHT22;7812;50.072;7.036;2022-10-16T15:02:58;18.50;99.90
15426;DHT22;7812;50.072;7.036;2022-10-16T15:05:26;18.50;99.90
15426;DHT22;7812;50.072;7.036;2022-10-16T15:07:53;18.50;99.90
15426;DHT22;7812;50.072;7.036;2022-10-16T15:10:20;18.50;99.90
15426;DHT22;7812;50.072;7.036;2022-10-16T15:12:47;18.50;99.90
15426;DHT22;7812;50.072;7.036;2022-10-16T15:17:49;18.30;99.90
15426;DHT22;7812;50.072;7.036;2022-10-16T15:20:18;18.10;99.90
15426;DHT22;7812;50.072;7.036;2022-10-16T15:22:44;18.00;99.90
15426;DHT22;7812;50.072;7.036;2022-10-16T15:25:43;18.00;99.90
15426;DHT22;7812;50.072;7.036;2022-10-16T15:28:09;18.10;99.90
15426;DHT22;7812;50.072;7.036;2022-10-16T15:30:36;18.10;99.90
15426;DHT22;7812;50.072;7.036;2022-10-16T15:33:03;18.10;99.90
15426;DHT22;7812;50.072;7.036;2022-10-16T15:35:29;18.00;99.90
15426;DHT22;7812;50.072;7.036;2022-10-16T15:37:55;17.80;99.90
15426;DHT22;7812;50.072;7.036;2022-10-16T15:40:22;17.60;99.90
15426;DHT22;7812;50.072;7.036;2022-10-16T15:42:48;17.40;99.90
15426;DHT22;7812;50.072;7.036;2022-10-16T15:45:15;17.40;99.90
15426;DHT22;7812;50.072;7.036;2022-10-16T15:47:41;17.40;99.90
15426;DHT22;7812;50.072;7.036;2022-10-16T15:50:10;17.30;99.90
15426;DHT22;7812;50.072;7.036;2022-10-16T15:52:37;17.40;99.90
15426;DHT22;7812;50.072;7.036;2022-10-16T15:55:10;17.30;99.90
15426;DHT22;7812;50.072;7.036;2022-10-16T15:57:36;17.30;99.90
15426;DHT22;7812;50.072;7.036;2022-10-16T16:00:13;17.30;99.90
15426;DHT22;7812;50.072;7.036;2022-10-16T16:02:39;17.20;99.90
15426;DHT22;7812;50.072;7.036;2022-10-16T16:05:06;17.20;99.90
15426;DHT22;7812;50.072;7.036;2022-10-16T16:07:34;17.20;99.90
15426;DHT22;7812;50.072;7.036;2022-10-16T16:10:00;17.10;99.90
15426;DHT22;7812;50.072;7.036;2022-10-16T16:12:26;17.00;99.90
15426;DHT22;7812;50.072;7.036;2022-10-16T16:14:51;17.00;99.90
15426;DHT22;7812;50.072;7.036;2022-10-16T16:17:17;17.00;99.90
15426;DHT22;7812;50.072;7.036;2022-10-16T16:19:43;17.00;99.90
15426;DHT22;7812;50.072;7.036;2022-10-16T16:22:09;16.90;99.90
15426;DHT22;7812;50.072;7.036;2022-10-16T16:24:34;16.90;99.90
15426;DHT22;7812;50.072;7.036;2022-10-16T16:27:00;16.90;99.90
15426;DHT22;7812;50.072;7.036;2022-10-16T16:29:26;16.80;99.90
15426;DHT22;7812;50.072;7.036;2022-10-16T16:31:51;16.70;99.90
15426;DHT22;7812;50.072;7.036;2022-10-16T16:34:26;16.60;99.90
15426;DHT22;7812;50.072;7.036;2022-10-16T16:36:53;16.50;99.90
15426;DHT22;7812;50.072;7.036;2022-10-16T16:39:19;16.40;99.90
15426;DHT22;7812;50.072;7.036;2022-10-16T16:41:45;16.30;99.90
15426;DHT22;7812;50.072;7.036;2022-10-16T16:44:14;16.30;99.90
15426;DHT22;7812;50.072;7.036;2022-10-16T16:46:41;16.10;99.90
15426;DHT22;7812;50.072;7.036;2022-10-16T16:49:12;16.10;99.90
15426;DHT22;7812;50.072;7.036;2022-10-16T16:51:39;16.00;99.90
15426;DHT22;7812;50.072;7.036;2022-10-16T16:54:05;16.10;99.90
15426;DHT22;7812;50.072;7.036;2022-10-16T16:56:32;16.10;99.90
15426;DHT22;7812;50.072;7.036;2022-10-16T16:58:58;16.00;99.90
15426;DHT22;7812;50.072;7.036;2022-10-16T17:01:25;16.00;99.90
15426;DHT22;7812;50.072;7.036;2022-10-16T17:03:53;15.80;99.90
15426;DHT22;7812;50.072;7.036;2022-10-16T17:06:21;15.70;99.90
15426;DHT22;7812;50.072;7.036;2022-10-16T17:08:48;15.60;99.90
15426;DHT22;7812;50.072;7.036;2022-10-16T17:11:18;15.50;99.90
15426;DHT22;7812;50.072;7.036;2022-10-16T17:13:44;15.40;99.90
15426;DHT22;7812;50.072;7.036;2022-10-16T17:16:11;15.40;99.90
15426;DHT22;7812;50.072;7.036;2022-10-16T17:18:36;15.40;99.90
15426;DHT22;7812;50.072;7.036;2022-10-16T17:21:05;15.40;99.90
15426;DHT22;7812;50.072;7.036;2022-10-16T17:23:33;15.30;99.90
15426;DHT22;7812;50.072;7.036;2022-10-16T17:26:04;15.30;99.90
15426;DHT22;7812;50.072;7.036;2022-10-16T17:28:30;15.20;99.90
15426;DHT22;7812;50.072;7.036;2022-10-16T17:30:56;15.20;99.90
15426;DHT22;7812;50.072;7.036;2022-10-16T17:33:23;15.10;99.90
15426;DHT22;7812;50.072;7.036;2022-10-16T17:35:48;15.10;99.90
15426;DHT22;7812;50.072;7.036;2022-10-16T17:38:14;15.10;99.90
15426;DHT22;7812;50.072;7.036;2022-10-16T17:40:41;15.00;99.90
15426;DHT22;7812;50.072;7.036;2022-10-16T17:43:08;15.00;99.90
15426;DHT22;7812;50.072;7.036;2022-10-16T17:45:36;15.00;99.90
15426;DHT22;7812;50.072;7.036;2022-10-16T17:48:02;15.00;99.90
15426;DHT22;7812;50.072;7.036;2022-10-16T17:50:28;15.10;99.90
15426;DHT22;7812;50.072;7.036;2022-10-16T17:52:54;15.10;99.90
15426;DHT22;7812;50.072;7.036;2022-10-16T17:55:19;15.10;99.90
15426;DHT22;7812;50.072;7.036;2022-10-16T17:57:46;15.00;99.90
15426;DHT22;7812;50.072;7.036;2022-10-16T18:00:12;15.10;99.90
15426;DHT22;7812;50.072;7.036;2022-10-16T18:02:38;15.10;99.90
15426;DHT22;7812;50.072;7.036;2022-10-16T18:05:08;15.10;99.90
15426;DHT22;7812;50.072;7.036;2022-10-16T18:07:34;15.20;99.90
15426;DHT22;7812;50.072;7.036;2022-10-16T18:09:59;15.20;99.90
15426;DHT22;7812;50.072;7.036;2022-10-16T18:12:26;15.20;99.90
15426;DHT22;7812;50.072;7.036;2022-10-16T18:14:51;15.20;99.90
15426;DHT22;7812;50.072;7.036;2022-10-16T18:17:22;15.20;99.90
15426;DHT22;7812;50.072;7.036;2022-10-16T18:19:49;15.20;99.90